createdAt,value
2022-11-04T00:00:19.467Z,75.67
2022-11-04T00:03:01.891Z,75.41
2022-11-04T00:05:30.457Z,75.28
2022-11-04T00:08:17.137Z,75.21
2022-11-04T00:11:03.963Z,75.20
2022-11-04T00:13:31.887Z,75.07
2022-11-04T00:16:21.544Z,75.04
2022-11-04T00:18:49.534Z,75.04
2022-11-04T00:21:36.107Z,75.08
2022-11-04T00:24:25.041Z,75.02
2022-11-04T00:27:11.748Z,75.03
2022-11-04T00:29:40.604Z,75.11
2022-11-04T00:32:27.200Z,75.05
2022-11-04T00:34:56.150Z,75.18
2022-11-04T00:37:23.924Z,75.18
2022-11-04T00:39:51.648Z,75.24
2022-11-04T00:42:19.371Z,75.17
2022-11-04T00:44:47.084Z,75.45
2022-11-04T00:47:15.040Z,75.33
2022-11-04T00:49:42.744Z,75.26
2022-11-04T00:52:10.719Z,75.19
2022-11-04T00:54:38.444Z,75.33
2022-11-04T00:57:10.265Z,75.42
2022-11-04T00:59:40.698Z,75.44
2022-11-04T01:02:10.450Z,75.42
2022-11-04T01:04:38.649Z,75.39
2022-11-04T01:07:07.592Z,75.41
2022-11-04T01:09:35.620Z,75.44
2022-11-04T01:12:04.679Z,75.75
2022-11-04T01:14:32.740Z,75.88
2022-11-04T01:17:00.686Z,75.87
2022-11-04T01:19:28.428Z,75.75
2022-11-04T01:21:56.153Z,75.80
2022-11-04T01:24:23.881Z,75.91
2022-11-04T01:26:52.116Z,76.01
2022-11-04T01:29:19.855Z,75.99
2022-11-04T01:31:47.781Z,75.88
2022-11-04T01:34:15.795Z,75.93
2022-11-04T01:36:43.717Z,75.80
2022-11-04T01:39:13.551Z,75.93
2022-11-04T01:41:41.618Z,75.94
2022-11-04T01:44:49.403Z,75.86
2022-11-04T01:47:33.320Z,75.96
2022-11-04T01:50:05.637Z,76.16
2022-11-04T01:52:46.767Z,76.04
2022-11-04T01:55:24.687Z,76.32
2022-11-04T01:58:01.827Z,76.38
2022-11-04T02:00:30.934Z,76.51
2022-11-04T02:03:10.820Z,76.38
2022-11-04T02:05:40.928Z,76.17
2022-11-04T02:08:11.809Z,76.40
2022-11-04T02:10:46.041Z,76.45
2022-11-04T02:13:14.042Z,76.48
2022-11-04T02:16:04.959Z,76.40
2022-11-04T02:18:38.898Z,76.51
2022-11-04T02:21:09.608Z,76.61
2022-11-04T02:24:05.697Z,76.56
2022-11-04T02:27:08.387Z,76.86
2022-11-04T02:29:45.718Z,76.86
2022-11-04T02:32:32.222Z,76.75
2022-11-04T02:35:25.240Z,76.88
2022-11-04T02:38:08.184Z,76.86
2022-11-04T02:40:44.020Z,77.08
2022-11-04T02:43:38.479Z,77.23
2022-11-04T02:46:27.609Z,77.26
2022-11-04T02:48:58.668Z,77.24
2022-11-04T02:51:56.964Z,77.50
2022-11-04T02:54:50.392Z,77.43
2022-11-04T02:57:24.530Z,77.73
2022-11-04T03:00:04.093Z,77.74
2022-11-04T03:02:41.863Z,77.68
2022-11-04T03:05:15.938Z,77.56
2022-11-04T03:07:48.644Z,77.57
2022-11-04T03:10:27.393Z,77.63
2022-11-04T03:13:04.058Z,77.68
2022-11-04T03:15:36.113Z,77.93
2022-11-04T03:18:23.157Z,77.91
2022-11-04T03:20:55.923Z,78.07
2022-11-04T03:23:24.798Z,78.17
2022-11-04T03:25:58.596Z,77.99
2022-11-04T03:29:01.095Z,78.02
2022-11-04T03:32:01.226Z,78.05
2022-11-04T03:34:30.417Z,78.02
2022-11-04T03:36:59.634Z,77.97
2022-11-04T03:39:28.642Z,78.04
2022-11-04T03:42:01.297Z,78.05
2022-11-04T03:44:30.768Z,78.28
2022-11-04T03:46:58.786Z,78.28
2022-11-04T03:49:28.119Z,78.39
2022-11-04T03:51:58.134Z,78.62
2022-11-04T03:54:27.101Z,78.74
2022-11-04T03:57:13.998Z,78.49
2022-11-04T04:00:11.272Z,78.39
2022-11-04T04:02:57.003Z,78.21
2022-11-04T04:05:39.753Z,78.06
2022-11-04T04:08:23.939Z,78.07
2022-11-04T04:11:10.340Z,77.98
2022-11-04T04:13:45.433Z,77.97
2022-11-04T04:16:30.479Z,78.04
2022-11-04T04:19:24.547Z,78.23
2022-11-04T04:22:15.542Z,78.31
2022-11-04T04:25:08.166Z,78.10
2022-11-04T04:27:38.658Z,78.21
2022-11-04T04:30:17.963Z,78.24
2022-11-04T04:32:54.436Z,78.29
2022-11-04T04:35:44.165Z,78.30
2022-11-04T04:38:33.707Z,78.31
2022-11-04T04:41:37.160Z,78.38
2022-11-04T04:44:40.139Z,78.28
2022-11-04T04:47:11.804Z,78.25
2022-11-04T04:49:51.114Z,78.17
2022-11-04T04:52:20.816Z,78.13
2022-11-04T04:54:48.561Z,78.15
2022-11-04T04:57:16.466Z,78.17
2022-11-04T04:59:44.219Z,78.17
2022-11-04T05:02:12.357Z,78.20
2022-11-04T05:04:41.359Z,78.22
2022-11-04T05:07:10.917Z,78.23
2022-11-04T05:09:38.886Z,78.24
2022-11-04T05:12:06.643Z,78.22
2022-11-04T05:14:35.073Z,78.24
2022-11-04T05:17:02.848Z,78.17
2022-11-04T05:19:30.554Z,78.11
2022-11-04T05:22:01.298Z,78.08
2022-11-04T05:24:29.258Z,78.05
2022-11-04T05:26:56.979Z,78.04
2022-11-04T05:29:24.736Z,78.04
2022-11-04T05:31:52.692Z,78.10
2022-11-04T05:34:20.416Z,78.16
2022-11-04T05:36:48.121Z,78.19
2022-11-04T05:39:15.926Z,78.14
2022-11-04T05:41:43.890Z,78.19
2022-11-04T05:44:11.692Z,78.24
2022-11-04T05:46:39.666Z,78.22
2022-11-04T05:49:07.585Z,78.17
2022-11-04T05:51:35.341Z,78.09
2022-11-04T05:54:03.352Z,78.12
2022-11-04T05:56:31.103Z,78.15
2022-11-04T05:58:59.053Z,78.14
2022-11-04T06:01:36.917Z,78.12
2022-11-04T06:04:06.890Z,78.11
2022-11-04T06:06:36.843Z,77.93
2022-11-04T06:09:04.846Z,77.78
2022-11-04T06:11:34.523Z,77.69
2022-11-04T06:14:02.226Z,77.51
2022-11-04T06:16:30.131Z,77.49
2022-11-04T06:19:03.375Z,77.43
2022-11-04T06:21:36.227Z,77.37
2022-11-04T06:24:05.373Z,77.37
2022-11-04T06:26:33.096Z,77.39
2022-11-04T06:29:01.074Z,77.41
2022-11-04T06:31:29.834Z,77.46
2022-11-04T06:33:57.760Z,77.53
2022-11-04T06:36:27.777Z,77.56
2022-11-04T06:38:59.952Z,77.60
2022-11-04T06:41:31.903Z,77.50
2022-11-04T06:44:00.092Z,77.51
2022-11-04T06:46:36.934Z,77.41
2022-11-04T06:49:06.960Z,77.39
2022-11-04T06:51:34.766Z,77.34
2022-11-04T06:54:02.760Z,77.33
2022-11-04T06:56:30.493Z,77.29
2022-11-04T06:59:00.133Z,77.21
2022-11-04T07:01:31.633Z,77.14
2022-11-04T07:04:01.298Z,77.12
2022-11-04T07:06:30.323Z,77.14
2022-11-04T07:09:00.738Z,77.19
2022-11-04T07:11:33.094Z,77.32
2022-11-04T07:14:00.798Z,77.37
2022-11-04T07:16:28.819Z,77.35
2022-11-04T07:18:56.598Z,77.30
2022-11-04T07:21:24.388Z,77.21
2022-11-04T07:23:52.469Z,77.10
2022-11-04T07:26:20.329Z,77.07
2022-11-04T07:28:48.073Z,76.99
2022-11-04T07:31:18.170Z,76.85
2022-11-04T07:33:52.064Z,76.73
2022-11-04T07:36:21.974Z,76.55
2022-11-04T07:38:50.930Z,76.29
2022-11-04T07:41:19.607Z,76.08
2022-11-04T07:43:52.489Z,75.99
2022-11-04T07:46:21.879Z,75.80
2022-11-04T07:48:49.923Z,75.70
2022-11-04T07:51:20.466Z,75.62
2022-11-04T07:53:48.541Z,75.48
2022-11-04T07:56:18.988Z,75.32
2022-11-04T07:58:46.916Z,75.32
2022-11-04T08:01:18.641Z,75.35
2022-11-04T08:03:46.458Z,75.36
2022-11-04T08:06:17.556Z,74.98
2022-11-04T08:08:45.653Z,74.80
2022-11-04T08:11:20.876Z,74.50
2022-11-04T08:13:49.634Z,73.99
2022-11-04T08:16:23.948Z,73.78
2022-11-04T08:18:54.242Z,73.42
2022-11-04T08:21:23.248Z,73.09
2022-11-04T08:23:52.665Z,72.77
2022-11-04T08:26:24.170Z,72.44
2022-11-04T08:28:53.336Z,72.00
2022-11-04T08:31:26.118Z,71.91
2022-11-04T08:33:55.240Z,71.59
2022-11-04T08:36:28.001Z,71.39
2022-11-04T08:38:57.041Z,71.06
2022-11-04T08:41:29.423Z,70.70
2022-11-04T08:44:04.289Z,70.31
2022-11-04T08:46:36.516Z,70.15
2022-11-04T08:49:09.961Z,69.90
2022-11-04T08:51:44.794Z,69.96
2022-11-04T08:54:12.561Z,69.55
2022-11-04T08:56:41.415Z,69.24
2022-11-04T08:59:11.530Z,68.98
2022-11-04T09:01:39.434Z,68.82
2022-11-04T09:04:07.435Z,68.36
2022-11-04T09:06:39.268Z,67.86
2022-11-04T09:09:10.909Z,67.78
2022-11-04T09:11:42.773Z,67.38
2022-11-04T09:14:12.368Z,66.58
2022-11-04T09:16:42.286Z,65.97
2022-11-04T09:19:10.371Z,65.38
2022-11-04T09:21:38.244Z,64.69
2022-11-04T09:24:08.716Z,63.91
2022-11-04T09:26:38.021Z,63.90
2022-11-04T09:29:08.621Z,62.78
2022-11-04T09:31:36.872Z,61.74
2022-11-04T09:34:04.876Z,61.62
2022-11-04T09:36:33.383Z,60.62
2022-11-04T09:39:01.376Z,60.83
2022-11-04T09:41:51.588Z,60.37
2022-11-04T09:45:14.844Z,59.50
2022-11-04T09:47:36.713Z,58.34
2022-11-04T09:50:08.462Z,58.81
2022-11-04T09:52:45.534Z,58.42
2022-11-04T09:55:40.041Z,58.02
2022-11-04T09:58:13.062Z,58.30
2022-11-04T10:00:46.061Z,57.64
2022-11-04T10:03:27.520Z,57.10
2022-11-04T10:06:07.536Z,56.91
2022-11-04T10:08:41.018Z,57.40
2022-11-04T10:11:16.629Z,57.61
2022-11-04T10:13:50.571Z,58.28
2022-11-04T10:16:24.009Z,57.77
2022-11-04T10:18:51.821Z,57.66
2022-11-04T10:21:57.647Z,56.43
2022-11-04T10:24:35.915Z,56.88
2022-11-04T10:27:11.439Z,57.08
2022-11-04T10:30:22.065Z,57.31
2022-11-04T10:33:12.548Z,57.27
2022-11-04T10:36:04.868Z,55.93
2022-11-04T10:38:38.431Z,56.15
2022-11-04T10:41:20.322Z,55.47
2022-11-04T10:43:49.481Z,54.74
2022-11-04T10:46:30.489Z,54.89
2022-11-04T10:49:14.215Z,54.95
2022-11-04T10:51:42.799Z,54.26
2022-11-04T10:54:12.113Z,53.27
2022-11-04T10:56:48.183Z,52.58
2022-11-04T10:59:37.343Z,53.28
2022-11-04T11:02:05.158Z,53.38
2022-11-04T11:04:36.756Z,53.22
2022-11-04T11:07:09.183Z,52.86
2022-11-04T11:09:53.988Z,52.45
2022-11-04T11:12:56.574Z,52.36
2022-11-04T11:15:30.626Z,52.28
2022-11-04T11:18:07.789Z,51.78
2022-11-04T11:20:39.259Z,51.99
2022-11-04T11:23:38.526Z,52.52
2022-11-04T11:26:11.951Z,50.88
2022-11-04T11:28:41.681Z,50.71
2022-11-04T11:31:17.438Z,50.41
2022-11-04T11:33:58.253Z,50.16
2022-11-04T11:36:31.658Z,48.36
2022-11-04T11:39:13.201Z,48.23
2022-11-04T11:41:53.583Z,49.68
2022-11-04T11:44:39.295Z,48.49
2022-11-04T11:47:29.229Z,47.34
2022-11-04T11:50:20.947Z,46.98
2022-11-04T11:52:52.909Z,47.69
2022-11-04T11:55:24.017Z,48.23
2022-11-04T12:01:03.486Z,47.95
2022-11-04T12:10:52.398Z,49.14
2022-11-04T12:13:30.898Z,48.73
2022-11-04T12:16:16.752Z,48.40
2022-11-04T12:19:02.998Z,48.05
2022-11-04T12:21:47.404Z,48.56
2022-11-04T12:24:31.859Z,48.44
2022-11-04T12:27:15.503Z,48.37
2022-11-04T12:29:43.194Z,48.21
2022-11-04T12:32:23.144Z,48.96
2022-11-04T12:34:57.179Z,48.91
2022-11-04T12:38:03.452Z,49.25
2022-11-04T12:41:46.778Z,49.69
2022-11-04T12:44:26.038Z,49.86
2022-11-04T12:47:12.733Z,50.08
2022-11-04T12:49:58.839Z,50.31
2022-11-04T12:52:26.726Z,50.65
2022-11-04T12:55:25.729Z,50.73
2022-11-04T12:58:32.261Z,50.57
2022-11-04T13:01:15.014Z,50.88
2022-11-04T13:04:08.094Z,51.07
2022-11-04T13:06:41.835Z,51.46
2022-11-04T13:09:16.994Z,51.48
2022-11-04T13:11:56.703Z,51.72
2022-11-04T13:14:33.423Z,51.95
2022-11-04T13:17:08.569Z,52.27
2022-11-04T13:19:50.410Z,52.36
2022-11-04T13:22:26.910Z,52.46
2022-11-04T13:25:07.443Z,52.60
2022-11-04T13:27:45.210Z,52.56
2022-11-04T13:30:48.288Z,52.60
2022-11-04T13:33:47.646Z,52.58
2022-11-04T13:36:44.687Z,52.75
2022-11-04T13:39:24.272Z,52.71
2022-11-04T13:42:12.417Z,52.81
2022-11-04T13:44:45.275Z,52.87
2022-11-04T13:47:22.474Z,52.92
2022-11-04T13:49:56.358Z,53.07
2022-11-04T13:52:30.919Z,53.18
2022-11-04T13:55:20.497Z,53.33
2022-11-04T13:57:58.284Z,53.45
2022-11-04T14:00:31.701Z,53.64
2022-11-04T14:03:01.379Z,53.75
2022-11-04T14:05:32.066Z,53.89
2022-11-04T14:08:02.703Z,53.98
2022-11-04T14:10:51.074Z,53.93
2022-11-04T14:13:29.121Z,53.95
2022-11-04T14:16:05.869Z,54.02
2022-11-04T14:18:35.821Z,53.94
2022-11-04T14:21:13.353Z,53.98
2022-11-04T14:23:49.819Z,54.06
2022-11-04T14:26:24.341Z,54.20
2022-11-04T14:29:18.225Z,54.05
2022-11-04T14:31:50.128Z,54.05
2022-11-04T14:34:29.402Z,54.02
2022-11-04T14:37:06.552Z,54.06
2022-11-04T14:39:40.060Z,54.17
2022-11-04T14:42:13.274Z,54.32
2022-11-04T14:44:50.390Z,54.45
2022-11-04T14:47:20.780Z,54.67
2022-11-04T14:49:52.359Z,54.72
2022-11-04T14:52:26.016Z,54.83
2022-11-04T14:55:02.134Z,54.96
2022-11-04T14:57:36.688Z,55.09
2022-11-04T15:00:29.839Z,55.24
2022-11-04T15:03:10.543Z,55.29
2022-11-04T15:06:01.415Z,55.43
2022-11-04T15:08:41.336Z,55.74
2022-11-04T15:11:40.086Z,56.50
2022-11-04T15:14:29.082Z,57.13
2022-11-04T15:17:00.257Z,57.50
2022-11-04T15:19:31.313Z,58.00
2022-11-04T15:22:02.661Z,58.20
2022-11-04T15:24:32.184Z,58.62
2022-11-04T15:27:06.064Z,58.87
2022-11-04T15:29:35.325Z,59.18
2022-11-04T15:32:05.692Z,59.44
2022-11-04T15:34:36.853Z,59.79
2022-11-04T15:37:06.556Z,60.11
2022-11-04T15:39:43.693Z,60.34
2022-11-04T15:42:41.202Z,60.59
2022-11-04T15:45:39.314Z,60.87
2022-11-04T15:48:31.745Z,61.17
2022-11-04T15:51:16.840Z,61.64
2022-11-04T15:53:48.957Z,62.00
2022-11-04T15:56:27.605Z,62.17
2022-11-04T15:58:58.929Z,62.38
2022-11-04T16:01:29.134Z,62.70
2022-11-04T16:04:03.074Z,63.05
2022-11-04T16:06:36.401Z,63.36
2022-11-04T16:09:26.588Z,63.64
2022-11-04T16:12:36.041Z,64.12
2022-11-04T16:15:05.124Z,64.20
2022-11-04T16:17:32.925Z,64.45
2022-11-04T16:20:06.400Z,64.75
2022-11-04T16:22:41.464Z,64.96
2022-11-04T16:25:22.543Z,65.13
2022-11-04T16:27:51.795Z,65.32
2022-11-04T16:30:23.448Z,65.54
2022-11-04T16:32:55.894Z,65.62
2022-11-04T16:35:28.294Z,65.84
2022-11-04T16:37:57.233Z,65.89
2022-11-04T16:40:26.269Z,66.08
2022-11-04T16:42:56.634Z,66.16
2022-11-04T16:45:34.459Z,66.36
2022-11-04T16:48:02.546Z,66.53
2022-11-04T16:50:33.038Z,66.69
2022-11-04T16:53:04.710Z,66.76
2022-11-04T16:55:33.727Z,66.70
2022-11-04T16:58:05.672Z,66.80
2022-11-04T17:00:34.663Z,67.02
2022-11-04T17:03:22.172Z,67.18
2022-11-04T17:05:55.661Z,67.31
2022-11-04T17:08:25.874Z,67.49
2022-11-04T17:10:55.301Z,67.64
2022-11-04T17:13:23.051Z,67.71
2022-11-04T17:15:50.977Z,67.91
2022-11-04T17:18:18.922Z,68.06
2022-11-04T17:20:53.590Z,68.13
2022-11-04T17:23:22.552Z,68.19
2022-11-04T17:25:52.977Z,68.28
2022-11-04T17:28:20.960Z,68.31
2022-11-04T17:30:48.933Z,68.38
2022-11-04T17:33:20.417Z,68.40
2022-11-04T17:35:51.408Z,68.40
2022-11-04T17:38:20.592Z,68.45
2022-11-04T17:41:07.034Z,68.43
2022-11-04T17:43:53.694Z,68.34
2022-11-04T17:46:35.187Z,68.55
2022-11-04T17:49:11.641Z,68.79
2022-11-04T17:51:42.727Z,68.86
2022-11-04T17:54:11.742Z,69.03
2022-11-04T17:56:41.305Z,68.98
2022-11-04T17:59:12.518Z,69.05
2022-11-04T18:01:43.774Z,69.29
2022-11-04T18:04:20.532Z,69.36
2022-11-04T18:06:50.511Z,69.43
2022-11-04T18:09:19.578Z,69.53
2022-11-04T18:12:06.519Z,69.51
2022-11-04T18:14:34.299Z,69.62
2022-11-04T18:17:03.250Z,69.86
2022-11-04T18:19:32.074Z,69.94
2022-11-04T18:22:01.887Z,70.09
2022-11-04T18:24:29.729Z,70.20
2022-11-04T18:27:01.845Z,70.45
2022-11-04T18:29:29.603Z,70.55
2022-11-04T18:31:57.412Z,70.33
2022-11-04T18:34:25.225Z,70.40
2022-11-04T18:36:53.058Z,70.38
2022-11-04T18:39:20.856Z,70.45
2022-11-04T18:41:48.575Z,70.67
2022-11-04T18:44:20.687Z,70.80
2022-11-04T18:46:49.828Z,70.97
2022-11-04T18:49:21.643Z,71.08
2022-11-04T18:51:49.432Z,71.25
2022-11-04T18:54:17.194Z,71.29
2022-11-04T18:56:46.010Z,71.34
2022-11-04T18:59:16.092Z,71.46
2022-11-04T19:01:45.870Z,71.54
2022-11-04T19:04:14.237Z,71.60
2022-11-04T19:06:45.156Z,71.66
2022-11-04T19:09:45.462Z,71.77
2022-11-04T19:12:26.820Z,71.92
2022-11-04T19:14:55.880Z,71.96
2022-11-04T19:17:25.343Z,72.10
2022-11-04T19:19:53.083Z,72.18
2022-11-04T19:22:20.879Z,72.22
2022-11-04T19:24:48.701Z,72.25
2022-11-04T19:27:18.813Z,72.27
2022-11-04T19:29:46.776Z,72.24
2022-11-04T19:32:14.783Z,72.07
2022-11-04T19:34:44.050Z,72.20
2022-11-04T19:37:11.942Z,72.14
2022-11-04T19:39:40.841Z,72.33
2022-11-04T19:42:30.503Z,72.47
2022-11-04T19:44:58.269Z,72.66
2022-11-04T19:47:27.033Z,72.70
2022-11-04T19:49:56.561Z,72.77
2022-11-04T19:52:24.417Z,72.94
2022-11-04T19:54:52.181Z,73.01
2022-11-04T19:57:19.921Z,73.02
2022-11-04T19:59:49.946Z,73.04
2022-11-04T20:02:17.953Z,73.01
2022-11-04T20:04:48.746Z,72.95
2022-11-04T20:07:17.967Z,72.92
2022-11-04T20:09:45.693Z,72.78
2022-11-04T20:12:32.082Z,72.61
2022-11-04T20:14:59.922Z,72.44
2022-11-04T20:17:27.670Z,72.34
2022-11-04T20:19:55.447Z,72.25
2022-11-04T20:22:23.208Z,72.60
2022-11-04T20:24:51.040Z,72.69
2022-11-04T20:27:20.041Z,72.69
2022-11-04T20:29:47.786Z,72.78
2022-11-04T20:32:15.514Z,72.87
2022-11-04T20:34:43.232Z,72.97
2022-11-04T20:37:13.664Z,72.96
2022-11-04T20:39:42.574Z,73.09
2022-11-04T20:42:10.362Z,73.14
2022-11-04T20:44:39.294Z,73.08
2022-11-04T20:47:07.035Z,73.01
2022-11-04T20:49:34.808Z,73.12
2022-11-04T20:52:04.351Z,72.92
2022-11-04T20:54:32.090Z,73.03
2022-11-04T20:56:59.806Z,73.12
2022-11-04T20:59:27.920Z,73.24
2022-11-04T21:01:55.857Z,73.31
2022-11-04T21:04:25.846Z,73.41
2022-11-04T21:06:54.759Z,73.53
2022-11-04T21:09:22.568Z,73.60
2022-11-04T21:11:50.466Z,73.72
2022-11-04T21:14:20.833Z,73.79
2022-11-04T21:16:48.582Z,73.92
2022-11-04T21:19:17.521Z,73.84
2022-11-04T21:21:47.733Z,73.82
2022-11-04T21:24:17.879Z,73.82
2022-11-04T21:26:46.546Z,73.90
2022-11-04T21:29:17.437Z,73.97
2022-11-04T21:31:47.060Z,73.92
2022-11-04T21:34:15.689Z,73.82
2022-11-04T21:36:43.524Z,73.69
2022-11-04T21:39:12.984Z,73.64
2022-11-04T21:41:40.681Z,73.64
2022-11-04T21:44:12.489Z,73.81
2022-11-04T21:46:41.054Z,74.03
2022-11-04T21:49:11.764Z,74.11
2022-11-04T21:51:39.765Z,74.19
2022-11-04T21:54:07.568Z,74.21
2022-11-04T21:56:36.077Z,74.09
2022-11-04T21:59:05.414Z,74.09
2022-11-04T22:01:33.947Z,73.98
2022-11-04T22:04:03.027Z,73.86
2022-11-04T22:06:35.047Z,73.70
2022-11-04T22:09:06.352Z,73.62
2022-11-04T22:11:39.660Z,73.60
2022-11-04T22:14:08.959Z,73.52
2022-11-04T22:16:39.492Z,73.51
2022-11-04T22:19:10.765Z,73.41
2022-11-04T22:21:41.388Z,73.41
2022-11-04T22:24:15.815Z,73.43
2022-11-04T22:26:44.605Z,73.40
2022-11-04T22:29:12.384Z,73.23
2022-11-04T22:31:43.309Z,73.16
2022-11-04T22:34:11.289Z,73.23
2022-11-04T22:36:40.178Z,73.24
2022-11-04T22:39:16.572Z,73.22
2022-11-04T22:41:46.792Z,73.24
2022-11-04T22:44:15.535Z,73.27
2022-11-04T22:46:43.787Z,73.28
2022-11-04T22:49:11.646Z,73.38
2022-11-04T22:51:39.341Z,73.45
2022-11-04T22:54:09.524Z,73.50
2022-11-04T22:56:38.174Z,73.62
2022-11-04T22:59:07.005Z,73.67
2022-11-04T23:01:36.151Z,73.61
2022-11-04T23:04:05.338Z,73.59
2022-11-04T23:06:33.103Z,73.63
2022-11-04T23:09:01.336Z,73.71
2022-11-04T23:11:49.734Z,73.72
2022-11-04T23:14:39.540Z,73.70
2022-11-04T23:17:40.856Z,73.73
2022-11-04T23:20:12.784Z,73.71
2022-11-04T23:22:59.528Z,73.59
2022-11-04T23:25:27.457Z,73.58
2022-11-04T23:28:25.445Z,73.58
2022-11-04T23:30:53.266Z,73.59
2022-11-04T23:33:40.939Z,73.59
2022-11-04T23:36:27.728Z,73.71
2022-11-04T23:38:55.531Z,73.78
2022-11-04T23:41:42.160Z,73.81
2022-11-04T23:44:29.903Z,73.82
2022-11-04T23:47:16.191Z,73.90
2022-11-04T23:50:02.556Z,73.77
2022-11-04T23:52:48.802Z,73.69
2022-11-04T23:55:35.244Z,73.59
2022-11-04T23:58:21.390Z,73.59
